Time;durP1;ratioP1;P1;durP2;ratioP2;P2;SDS_P1;SDS_P2;PMS_P1;PMS_P2;Temp;Humidity;BMP_temperature;BMP_pressure;BME280_temperature;BME280_humidity;BME280_pressure;Samples;Min_cycle;Max_cycle;Signal;HPM_P1;HPM_P2
2022/09/15 00:00:15;;;;;;;6.50;2.47;;;12.40;99.90;;;;;;5029954;28;20156;-74
2022/09/15 00:02:44;;;;;;;5.70;2.05;;;12.40;99.90;;;;;;5014914;28;20104;-74
2022/09/15 00:05:10;;;;;;;5.28;2.10;;;12.50;99.90;;;;;;5015000;28;20068;-74
2022/09/15 00:07:36;;;;;;;5.70;2.75;;;12.50;99.90;;;;;;4997187;28;20108;-72
2022/09/15 00:10:04;;;;;;;5.60;2.10;;;12.60;99.90;;;;;;4997077;28;20046;-75
2022/09/15 00:12:29;;;;;;;6.65;2.17;;;12.60;99.90;;;;;;5014876;28;20049;-74
2022/09/15 00:14:55;;;;;;;6.25;2.08;;;12.60;99.90;;;;;;5014469;28;20046;-74
2022/09/15 00:17:21;;;;;;;7.35;2.30;;;12.60;99.90;;;;;;5014579;28;20441;-74
2022/09/15 00:19:47;;;;;;;6.82;2.67;;;12.60;99.90;;;;;;5014430;28;20042;-73
2022/09/15 00:22:13;;;;;;;7.38;2.78;;;12.70;99.90;;;;;;5014699;28;20037;-74
2022/09/15 00:24:40;;;;;;;8.55;2.50;;;12.70;99.90;;;;;;5014598;28;20099;-74
2022/09/15 00:27:06;;;;;;;7.63;2.33;;;12.70;99.90;;;;;;4996865;28;20507;-73
2022/09/15 00:29:32;;;;;;;8.27;2.47;;;12.60;99.90;;;;;;4996917;28;20064;-74
2022/09/15 00:31:58;;;;;;;8.15;2.85;;;12.60;99.90;;;;;;4996507;28;20042;-74
2022/09/15 00:34:24;;;;;;;5.53;2.13;;;12.50;99.90;;;;;;5014589;28;20409;-75
2022/09/15 00:36:49;;;;;;;9.07;2.28;;;12.50;99.90;;;;;;5014374;28;20081;-74
2022/09/15 00:39:15;;;;;;;8.10;2.50;;;12.50;99.90;;;;;;5029551;28;20057;-74
2022/09/15 00:41:41;;;;;;;6.57;2.40;;;12.60;99.90;;;;;;4996928;28;20061;-73
2022/09/15 00:44:18;;;;;;;6.82;2.58;;;12.60;99.90;;;;;;5014230;28;20049;-74
2022/09/15 00:46:48;;;;;;;6.68;2.78;;;12.60;99.90;;;;;;5012451;28;20042;-74
2022/09/15 00:49:23;;;;;;;7.13;2.67;;;12.80;99.90;;;;;;4996291;28;20046;-74
2022/09/15 00:51:53;;;;;;;7.82;2.35;;;12.80;99.90;;;;;;5014203;28;20042;-74
2022/09/15 00:55:04;;;;;;;5.53;2.17;;;12.80;99.90;;;;;;5014115;28;20054;-73
2022/09/15 00:57:36;;;;;;;8.65;2.63;;;12.90;99.90;;;;;;4930155;29;20118;-73
2022/09/15 01:00:07;;;;;;;8.10;2.70;;;12.90;99.90;;;;;;4937722;29;20059;-74
2022/09/15 01:02:34;;;;;;;6.70;2.42;;;12.90;99.90;;;;;;4953208;29;20057;-74
2022/09/15 01:05:03;;;;;;;7.68;2.67;;;13.00;99.90;;;;;;4953345;29;20058;-74
2022/09/15 01:07:44;;;;;;;8.18;2.58;;;13.00;99.90;;;;;;4953083;29;20063;-74
2022/09/15 01:10:26;;;;;;;6.63;2.78;;;13.00;99.90;;;;;;4937365;29;20475;-74
2022/09/15 01:12:56;;;;;;;;;;;13.10;99.90;;;;;;4937717;29;20087;-74
2022/09/15 01:15:38;;;;;;;6.18;2.33;;;13.10;99.90;;;;;;4937317;29;20367;-74
2022/09/15 01:18:41;;;;;;;6.32;2.28;;;13.10;99.90;;;;;;4952674;29;20051;-74
2022/09/15 01:21:28;;;;;;;7.75;2.92;;;13.20;99.90;;;;;;4937503;29;20118;-74
2022/09/15 01:24:31;;;;;;;5.88;2.35;;;13.20;99.90;;;;;;4953039;29;20050;-74
2022/09/15 01:27:11;;;;;;;8.02;3.17;;;13.20;99.90;;;;;;4953063;29;20549;-74
2022/09/15 01:30:01;;;;;;;8.95;3.00;;;13.20;99.90;;;;;;4937393;29;20099;-74
2022/09/15 01:33:05;;;;;;;7.78;2.47;;;13.20;99.90;;;;;;4952665;29;20090;-74
2022/09/15 01:35:39;;;;;;;7.45;2.53;;;13.20;99.90;;;;;;5013416;28;20053;-74
2022/09/15 01:38:22;;;;;;;6.88;2.55;;;13.20;99.90;;;;;;5013465;28;20038;-75
2022/09/15 01:40:57;;;;;;;7.60;2.38;;;13.20;99.90;;;;;;4995578;28;20053;-74
2022/09/15 01:43:25;;;;;;;8.40;2.40;;;13.20;99.90;;;;;;4995710;28;20148;-74
2022/09/15 01:45:52;;;;;;;6.47;2.15;;;13.20;99.90;;;;;;5012911;28;20515;-74
2022/09/15 01:48:22;;;;;;;7.97;2.30;;;13.20;99.90;;;;;;4995190;28;20057;-74
2022/09/15 01:50:52;;;;;;;6.22;2.10;;;13.20;99.90;;;;;;4995474;28;20073;-74
2022/09/15 01:53:21;;;;;;;6.25;2.10;;;13.30;99.90;;;;;;4995522;28;20486;-74
2022/09/15 01:55:59;;;;;;;6.50;2.50;;;13.20;99.90;;;;;;5013036;28;20135;-74
2022/09/15 01:58:25;;;;;;;7.53;2.45;;;13.20;99.90;;;;;;5012992;28;20482;-74
2022/09/15 02:01:20;;;;;;;7.93;2.58;;;13.20;99.90;;;;;;5013183;28;20042;-71
2022/09/15 02:03:54;;;;;;;7.95;2.53;;;13.30;99.90;;;;;;5001979;28;20058;-74
2022/09/15 02:06:25;;;;;;;6.75;2.08;;;13.20;99.90;;;;;;5012638;28;20446;-74
2022/09/15 02:08:57;;;;;;;10.63;2.28;;;13.30;99.90;;;;;;5013188;28;20046;-74
2022/09/15 02:11:27;;;;;;;6.53;2.47;;;13.30;99.90;;;;;;5027617;28;20046;-74
2022/09/15 02:14:21;;;;;;;6.20;2.30;;;13.30;99.90;;;;;;5012817;28;20053;-74
2022/09/15 02:16:51;;;;;;;8.20;2.70;;;13.30;99.90;;;;;;5012766;28;20050;-75
2022/09/15 02:19:30;;;;;;;5.70;2.08;;;13.20;99.90;;;;;;4994922;28;20056;-74
2022/09/15 02:22:12;;;;;;;5.57;2.30;;;13.20;99.90;;;;;;4995226;28;20045;-74
2022/09/15 02:24:41;;;;;;;5.88;2.30;;;13.20;99.90;;;;;;4995904;28;20052;-74
2022/09/15 02:27:16;;;;;;;6.43;2.20;;;13.20;99.90;;;;;;5012517;28;20136;-74
2022/09/15 02:29:46;;;;;;;8.55;2.50;;;13.30;99.90;;;;;;5028210;28;20053;-74
2022/09/15 02:32:16;;;;;;;5.35;2.00;;;13.30;99.90;;;;;;5012901;28;20100;-74
2022/09/15 02:34:46;;;;;;;6.07;2.22;;;13.30;99.90;;;;;;5012403;28;20060;-74
2022/09/15 02:37:13;;;;;;;5.32;1.92;;;13.30;99.90;;;;;;4995089;28;20053;-74
2022/09/15 02:39:44;;;;;;;5.50;2.20;;;13.20;99.90;;;;;;5012561;28;20565;-74
2022/09/15 02:42:10;;;;;;;6.82;2.25;;;13.20;99.90;;;;;;4995012;28;20120;-73
2022/09/15 02:44:36;;;;;;;12.98;2.50;;;13.10;99.90;;;;;;5014490;28;20085;-74
2022/09/15 02:47:02;;;;;;;7.18;2.35;;;13.20;99.90;;;;;;5012500;28;20050;-71
2022/09/15 02:49:28;;;;;;;8.95;2.50;;;13.20;99.90;;;;;;4995346;28;20046;-73
2022/09/15 02:51:54;;;;;;;9.05;2.78;;;13.30;99.90;;;;;;5012657;28;20494;-73
2022/09/15 02:54:20;;;;;;;5.55;2.40;;;13.30;99.90;;;;;;5013453;28;20050;-74
2022/09/15 02:56:46;;;;;;;7.85;2.42;;;13.30;99.90;;;;;;5012466;28;20125;-74
2022/09/15 02:59:12;;;;;;;6.97;1.50;;;13.30;99.90;;;;;;4978924;28;20094;-71
2022/09/15 03:01:39;;;;;;;5.20;1.65;;;13.30;99.90;;;;;;5012596;28;20096;-73
2022/09/15 03:04:05;;;;;;;8.32;1.90;;;13.30;99.90;;;;;;5012379;28;20107;-73
2022/09/15 03:06:33;;;;;;;5.85;1.80;;;13.30;99.90;;;;;;4994182;28;20471;-73
2022/09/15 03:09:04;;;;;;;6.50;1.70;;;13.30;99.90;;;;;;5012308;28;20053;-73
2022/09/15 03:11:30;;;;;;;5.68;1.50;;;13.20;99.90;;;;;;4994962;28;20050;-74
2022/09/15 03:13:58;;;;;;;8.95;1.70;;;13.20;99.90;;;;;;5012425;28;20481;-73
2022/09/15 03:16:25;;;;;;;6.70;1.50;;;13.20;99.90;;;;;;5012333;28;20046;-72
2022/09/15 03:18:53;;;;;;;4.13;1.42;;;13.20;99.90;;;;;;5027395;28;20082;-75
2022/09/15 03:21:20;;;;;;;6.85;1.38;;;13.20;99.90;;;;;;5012036;28;20129;-73
2022/09/15 03:23:45;;;;;;;7.60;1.40;;;13.20;99.90;;;;;;5014419;28;20042;-74
2022/09/15 03:26:11;;;;;;;9.52;1.65;;;13.20;99.90;;;;;;4998029;28;20045;-74
2022/09/15 03:28:38;;;;;;;7.25;1.63;;;13.20;99.90;;;;;;5015710;28;20132;-73
2022/09/15 03:31:05;;;;;;;3.80;0.90;;;13.20;99.90;;;;;;5015725;28;20046;-74
2022/09/15 03:33:30;;;;;;;7.00;1.20;;;13.20;99.90;;;;;;4998244;28;20073;-73
2022/09/15 03:35:56;;;;;;;6.18;0.90;;;13.10;99.90;;;;;;5015426;28;20081;-74
2022/09/15 03:38:22;;;;;;;6.05;1.15;;;13.20;99.90;;;;;;5015213;28;20099;-71
2022/09/15 03:41:00;;;;;;;5.22;1.05;;;13.20;99.90;;;;;;5015405;28;20085;-73
2022/09/15 03:43:26;;;;;;;8.52;1.27;;;13.20;99.90;;;;;;5015781;28;20046;-73
2022/09/15 03:45:53;;;;;;;4.22;0.98;;;13.20;99.90;;;;;;5015276;28;20548;-73
2022/09/15 03:48:19;;;;;;;5.70;1.20;;;13.20;99.90;;;;;;5015284;28;20375;-73
2022/09/15 03:50:46;;;;;;;5.07;1.10;;;13.20;99.90;;;;;;4997880;28;20044;-71
2022/09/15 03:53:11;;;;;;;5.03;0.85;;;13.10;99.90;;;;;;5014832;28;20053;-74
2022/09/15 03:55:37;;;;;;;4.93;0.98;;;13.10;99.90;;;;;;4997430;28;20052;-73
2022/09/15 03:58:03;;;;;;;5.75;1.48;;;13.10;99.90;;;;;;4997589;28;20052;-74
2022/09/15 04:00:28;;;;;;;7.45;1.17;;;13.10;99.90;;;;;;4997599;28;20406;-71
2022/09/15 04:02:54;;;;;;;5.43;0.95;;;13.00;99.90;;;;;;4997544;28;20042;-74
2022/09/15 04:05:19;;;;;;;2.88;0.80;;;13.00;99.90;;;;;;4997512;28;20078;-73
2022/09/15 04:07:45;;;;;;;7.53;1.33;;;13.00;99.90;;;;;;4996733;28;20510;-74
2022/09/15 04:10:11;;;;;;;7.82;1.17;;;13.00;99.90;;;;;;5014429;28;20072;-74
2022/09/15 04:12:37;;;;;;;5.63;1.10;;;12.90;99.90;;;;;;5015136;28;20054;-74
2022/09/15 04:15:03;;;;;;;3.50;1.05;;;13.00;99.90;;;;;;4997184;28;20120;-74
2022/09/15 04:17:29;;;;;;;3.60;0.90;;;12.90;99.90;;;;;;5014705;28;20052;-73
2022/09/15 04:19:55;;;;;;;5.95;1.48;;;12.80;99.90;;;;;;5014759;28;20128;-74
2022/09/15 04:22:20;;;;;;;7.70;1.05;;;12.90;99.90;;;;;;4997386;28;20038;-74
2022/09/15 04:24:49;;;;;;;8.40;1.10;;;12.80;99.90;;;;;;5014477;28;20042;-74
2022/09/15 04:27:16;;;;;;;2.70;0.70;;;12.80;99.90;;;;;;5014412;28;20137;-73
2022/09/15 04:29:42;;;;;;;6.82;1.30;;;12.80;99.90;;;;;;4996888;28;20049;-74
2022/09/15 04:32:09;;;;;;;7.88;1.38;;;12.90;99.90;;;;;;4997234;28;20053;-74
2022/09/15 04:34:34;;;;;;;3.28;1.00;;;12.90;99.90;;;;;;5013818;28;20073;-74
2022/09/15 04:37:01;;;;;;;5.72;1.10;;;12.80;99.90;;;;;;5014689;28;20533;-74
2022/09/15 04:39:27;;;;;;;4.22;1.00;;;12.90;99.90;;;;;;5014049;28;20089;-74
2022/09/15 04:41:53;;;;;;;3.88;0.98;;;12.90;99.90;;;;;;4996803;28;20081;-75
2022/09/15 04:44:22;;;;;;;4.32;0.93;;;12.90;99.90;;;;;;5014296;28;20202;-74
2022/09/15 04:46:47;;;;;;;4.15;1.02;;;12.80;99.90;;;;;;5014132;28;20100;-73
2022/09/15 04:49:13;;;;;;;4.82;0.93;;;12.80;99.90;;;;;;5014476;28;20401;-74
2022/09/15 04:51:39;;;;;;;7.47;1.45;;;12.80;99.90;;;;;;5014151;28;20054;-74
2022/09/15 04:54:05;;;;;;;3.72;0.90;;;12.80;99.90;;;;;;5013838;28;20042;-74
2022/09/15 04:56:30;;;;;;;6.07;1.17;;;12.80;99.90;;;;;;5013903;28;20045;-74
2022/09/15 04:58:58;;;;;;;3.17;0.88;;;12.70;99.90;;;;;;4996587;28;20042;-74
2022/09/15 05:01:26;;;;;;;5.18;1.25;;;12.80;99.90;;;;;;4996293;28;20061;-72
2022/09/15 05:03:52;;;;;;;3.88;1.00;;;12.70;99.90;;;;;;5013924;28;20123;-73
2022/09/15 05:06:24;;;;;;;5.97;0.82;;;12.70;99.90;;;;;;5013970;28;20053;-73
2022/09/15 05:08:52;;;;;;;8.15;1.30;;;12.70;99.90;;;;;;5013675;28;20058;-73
2022/09/15 05:11:18;;;;;;;4.93;1.00;;;12.60;99.90;;;;;;5013174;28;20073;-74
2022/09/15 05:13:44;;;;;;;4.78;1.00;;;12.60;99.90;;;;;;5013892;28;20093;-74
2022/09/15 05:16:16;;;;;;;5.30;0.80;;;12.60;99.90;;;;;;5013642;28;20048;-74
2022/09/15 05:18:44;;;;;;;3.37;0.67;;;12.60;99.90;;;;;;4996106;28;20512;-74
2022/09/15 05:21:12;;;;;;;3.65;0.90;;;12.50;99.90;;;;;;4995936;28;20056;-73
2022/09/15 05:23:38;;;;;;;9.32;1.48;;;12.60;99.90;;;;;;5013550;28;20037;-74
2022/09/15 05:26:07;;;;;;;4.13;1.20;;;12.50;99.90;;;;;;5013052;28;20050;-74
2022/09/15 05:28:35;;;;;;;6.85;1.15;;;12.50;99.90;;;;;;4995573;28;20050;-74
2022/09/15 05:31:01;;;;;;;5.20;1.00;;;12.50;99.90;;;;;;5013730;28;20052;-73
2022/09/15 05:33:27;;;;;;;6.35;1.33;;;12.50;99.90;;;;;;4995497;28;20142;-73
2022/09/15 05:35:53;;;;;;;4.45;0.93;;;12.50;99.90;;;;;;5013454;28;20152;-73
2022/09/15 05:38:20;;;;;;;7.88;1.15;;;12.40;99.90;;;;;;5011918;28;20050;-74
2022/09/15 05:40:46;;;;;;;5.00;0.93;;;12.40;99.90;;;;;;5012866;28;20049;-74
2022/09/15 05:43:12;;;;;;;4.90;1.00;;;12.40;99.90;;;;;;5013346;28;20049;-71
2022/09/15 05:45:38;;;;;;;4.63;1.50;;;12.30;99.90;;;;;;5009446;28;20092;-73
2022/09/15 05:48:04;;;;;;;7.13;0.90;;;12.30;99.90;;;;;;5003603;28;20049;-74
2022/09/15 05:50:29;;;;;;;6.78;1.13;;;12.30;99.90;;;;;;5004812;28;20121;-73
2022/09/15 05:52:55;;;;;;;7.20;0.90;;;12.30;99.90;;;;;;4976258;28;20054;-74
2022/09/15 05:55:21;;;;;;;2.20;0.80;;;12.50;99.90;;;;;;4975745;28;20053;-73
2022/09/15 05:57:47;;;;;;;7.00;1.33;;;12.50;99.90;;;;;;4993364;28;20038;-74
2022/09/15 06:00:14;;;;;;;6.65;1.05;;;12.60;99.90;;;;;;4975854;28;20457;-73
2022/09/15 06:02:40;;;;;;;7.80;1.20;;;12.70;99.90;;;;;;4993444;28;20069;-71
2022/09/15 06:05:05;;;;;;;6.60;1.10;;;12.70;99.90;;;;;;4976111;28;20054;-74
2022/09/15 06:07:31;;;;;;;4.40;1.00;;;12.70;99.90;;;;;;4976097;28;20054;-74
2022/09/15 06:09:57;;;;;;;4.10;0.90;;;12.90;99.90;;;;;;4975611;28;20057;-74
2022/09/15 06:12:22;;;;;;;5.03;0.93;;;12.80;99.90;;;;;;4992783;28;20146;-72
2022/09/15 06:14:49;;;;;;;4.35;1.00;;;12.80;99.90;;;;;;4975940;28;20042;-74
2022/09/15 06:17:21;;;;;;;6.07;1.30;;;12.90;99.90;;;;;;4993075;28;20487;-73
2022/09/15 06:19:46;;;;;;;3.08;0.85;;;12.80;99.90;;;;;;4993300;28;20133;-73
2022/09/15 06:22:12;;;;;;;4.55;0.77;;;12.90;99.90;;;;;;4993190;28;20144;-73
2022/09/15 06:24:37;;;;;;;5.88;1.05;;;13.00;99.90;;;;;;4993034;28;20402;-71
2022/09/15 06:27:03;;;;;;;4.70;1.20;;;12.90;99.90;;;;;;4959257;28;20061;-73
2022/09/15 06:29:31;;;;;;;7.50;1.00;;;13.00;99.90;;;;;;4975550;28;20371;-74
2022/09/15 06:32:01;;;;;;;6.15;1.20;;;13.20;99.90;;;;;;5004323;28;20402;-74
2022/09/15 06:34:28;;;;;;;6.82;1.10;;;13.10;99.90;;;;;;4990944;28;20117;-73
2022/09/15 06:36:54;;;;;;;4.22;1.98;;;13.20;99.90;;;;;;5011303;28;20689;-71
2022/09/15 06:39:20;;;;;;;4.35;0.90;;;13.20;99.90;;;;;;5011660;28;20050;-74
2022/09/15 06:41:46;;;;;;;5.82;0.80;;;13.30;99.90;;;;;;4993378;28;20052;-74
2022/09/15 06:44:12;;;;;;;4.78;1.15;;;13.40;99.90;;;;;;4993547;28;20433;-76
2022/09/15 06:46:37;;;;;;;7.28;1.00;;;13.40;99.90;;;;;;5011723;28;20069;-76
2022/09/15 06:49:03;;;;;;;5.63;0.90;;;13.40;99.90;;;;;;4993435;28;20045;-74
2022/09/15 06:51:34;;;;;;;7.28;1.42;;;13.50;99.90;;;;;;4993873;28;20048;-75
2022/09/15 06:54:00;;;;;;;5.22;0.80;;;13.40;99.90;;;;;;4977675;28;20046;-75
2022/09/15 06:56:27;;;;;;;5.53;1.00;;;13.50;99.90;;;;;;4994678;28;20054;-75
2022/09/15 06:58:53;;;;;;;6.25;1.00;;;13.60;99.90;;;;;;4996932;28;20521;-76
2022/09/15 07:01:27;;;;;;;4.28;0.85;;;13.70;99.90;;;;;;5014891;28;20042;-75
2022/09/15 07:03:54;;;;;;;4.65;0.90;;;13.80;99.90;;;;;;5014826;28;20041;-77
2022/09/15 07:06:21;;;;;;;6.25;1.10;;;13.90;99.90;;;;;;5014740;28;20139;-78
2022/09/15 07:08:48;;;;;;;5.97;1.00;;;14.00;99.90;;;;;;5014843;28;20049;-78
2022/09/15 07:11:15;;;;;;;4.75;0.88;;;14.00;99.90;;;;;;5014134;28;20057;-80
2022/09/15 07:13:41;;;;;;;5.97;0.75;;;14.10;99.90;;;;;;4997238;28;20046;-80
2022/09/15 07:16:09;;;;;;;8.93;1.20;;;14.10;99.90;;;;;;5014153;28;20065;-77
2022/09/15 07:18:35;;;;;;;4.25;1.40;;;14.20;99.90;;;;;;5014998;28;20053;-76
2022/09/15 07:21:03;;;;;;;9.07;1.10;;;14.20;99.90;;;;;;4996532;28;20054;-75
2022/09/15 07:23:29;;;;;;;3.58;0.90;;;14.20;99.90;;;;;;5011129;28;20042;-73
2022/09/15 07:26:05;;;;;;;5.93;1.23;;;14.30;99.90;;;;;;4980546;28;20383;-77
2022/09/15 07:28:31;;;;;;;7.07;1.10;;;14.40;99.90;;;;;;4993586;28;20452;-76
2022/09/15 07:30:57;;;;;;;3.58;0.90;;;14.40;99.90;;;;;;5010304;28;20100;-76
2022/09/15 07:33:23;;;;;;;4.65;0.93;;;14.50;99.90;;;;;;5014184;28;20413;-76
2022/09/15 07:35:48;;;;;;;4.75;0.90;;;14.60;99.90;;;;;;4996982;28;20502;-76
2022/09/15 07:38:14;;;;;;;8.60;1.40;;;14.70;99.90;;;;;;5013948;28;20054;-78
2022/09/15 07:40:40;;;;;;;7.00;0.98;;;14.80;99.90;;;;;;5014160;28;20069;-77
2022/09/15 07:43:06;;;;;;;7.88;1.80;;;15.00;99.90;;;;;;4995379;28;20084;-74
2022/09/15 07:45:32;;;;;;;5.00;0.90;;;15.20;99.90;;;;;;4993296;28;20070;-77
2022/09/15 07:47:58;;;;;;;6.28;0.90;;;15.30;99.90;;;;;;4978947;28;20057;-77
2022/09/15 07:50:23;;;;;;;4.18;0.75;;;15.40;99.90;;;;;;4994197;28;20064;-76
2022/09/15 07:52:49;;;;;;;7.55;0.88;;;15.40;99.90;;;;;;5009636;28;20112;-75
2022/09/15 07:55:14;;;;;;;3.92;0.85;;;15.50;99.90;;;;;;5013620;28;20069;-73
2022/09/15 07:57:40;;;;;;;4.90;0.82;;;15.60;99.90;;;;;;5014282;28;20042;-76
2022/09/15 08:00:06;;;;;;;4.78;0.77;;;15.70;99.90;;;;;;5012607;28;20045;-69
2022/09/15 08:02:32;;;;;;;5.78;0.93;;;15.80;99.90;;;;;;5014259;28;20038;-71
2022/09/15 08:04:57;;;;;;;6.50;1.15;;;15.90;99.90;;;;;;5013437;28;20602;-70
2022/09/15 08:07:23;;;;;;;4.55;0.80;;;15.90;99.90;;;;;;4996339;28;20041;-73
2022/09/15 08:09:49;;;;;;;2.08;0.52;;;16.00;99.90;;;;;;5012385;28;20115;-70
2022/09/15 08:12:15;;;;;;;3.10;0.60;;;16.00;99.90;;;;;;5013053;28;20410;-70
2022/09/15 08:14:41;;;;;;;3.35;0.60;;;16.00;99.90;;;;;;5013603;28;20042;-70
2022/09/15 08:17:06;;;;;;;2.88;0.85;;;15.90;99.90;;;;;;5012769;28;20053;-69
2022/09/15 08:19:34;;;;;;;3.95;0.57;;;16.00;99.90;;;;;;5013722;28;20057;-70
2022/09/15 08:22:00;;;;;;;6.63;0.80;;;16.00;99.90;;;;;;5012655;28;20490;-71
2022/09/15 08:24:27;;;;;;;3.53;0.68;;;16.10;99.90;;;;;;4996118;28;20046;-72
2022/09/15 08:26:53;;;;;;;3.08;0.70;;;16.00;99.90;;;;;;4997061;28;20057;-70
2022/09/15 08:29:19;;;;;;;6.15;1.00;;;16.00;99.90;;;;;;5012091;28;20092;-73
2022/09/15 08:31:46;;;;;;;5.32;1.65;;;15.90;99.90;;;;;;5012223;28;20042;-70
2022/09/15 08:34:13;;;;;;;5.43;0.90;;;15.90;99.90;;;;;;5013415;28;20378;-72
2022/09/15 08:36:40;;;;;;;4.85;0.73;;;15.80;99.90;;;;;;4995348;28;20046;-70
2022/09/15 08:39:06;;;;;;;4.10;0.70;;;15.90;99.90;;;;;;5013234;28;20141;-70
2022/09/15 08:41:33;;;;;;;3.20;0.80;;;15.90;99.90;;;;;;5012688;28;20045;-73
2022/09/15 08:44:07;;;;;;;5.53;1.10;;;16.00;99.90;;;;;;5012630;28;20643;-70
2022/09/15 08:46:50;;;;;;;4.45;0.70;;;16.10;99.90;;;;;;4995085;28;20147;-72
2022/09/15 08:49:24;;;;;;;5.15;0.70;;;16.10;99.90;;;;;;5009020;28;20041;-69
2022/09/15 08:51:51;;;;;;;2.97;0.98;;;16.20;99.90;;;;;;4991959;28;20057;-70
2022/09/15 08:54:27;;;;;;;2.92;0.88;;;16.20;99.90;;;;;;4994482;28;20092;-69
2022/09/15 08:56:56;;;;;;;3.90;0.80;;;16.30;99.90;;;;;;5009552;28;20050;-71
2022/09/15 08:59:25;;;;;;;5.20;0.80;;;16.40;99.90;;;;;;5012689;28;20485;-70
2022/09/15 09:02:18;;;;;;;3.10;0.85;;;16.60;99.90;;;;;;5012482;28;20121;-73
2022/09/15 09:05:20;;;;;;;3.95;0.70;;;16.70;99.90;;;;;;4993834;28;20045;-70
2022/09/15 09:08:16;;;;;;;3.88;0.60;;;16.80;99.90;;;;;;4994759;28;20100;-71
2022/09/15 09:10:52;;;;;;;8.15;0.90;;;16.90;99.90;;;;;;5011335;28;20066;-69
2022/09/15 09:13:39;;;;;;;6.95;1.10;;;16.90;99.90;;;;;;4995085;28;20099;-69
2022/09/15 09:16:55;;;;;;;4.80;0.93;;;16.80;99.90;;;;;;5010568;28;20057;-74
2022/09/15 09:19:36;;;;;;;6.03;0.90;;;16.60;99.90;;;;;;4955084;28;20067;-74
2022/09/15 09:22:14;;;;;;;3.67;0.90;;;16.20;99.90;;;;;;4938298;28;20495;-75
2022/09/15 09:24:44;;;;;;;4.70;0.80;;;15.80;99.90;;;;;;4931455;28;20114;-75
2022/09/15 09:27:17;;;;;;;3.53;0.90;;;15.70;99.90;;;;;;4934181;28;20047;-75
2022/09/15 09:29:48;;;;;;;1.90;0.70;;;15.70;99.90;;;;;;4935180;28;20102;-78
2022/09/15 09:32:21;;;;;;;4.28;0.95;;;15.70;99.90;;;;;;4919551;28;20169;-72
2022/09/15 09:34:49;;;;;;;;;;;15.60;99.90;;;;;;4950521;28;20062;-70
2022/09/15 09:37:15;;;;;;;4.10;1.00;;;15.50;99.90;;;;;;4950134;28;20009;-75
2022/09/15 09:39:41;;;;;;;9.20;1.63;;;15.30;99.90;;;;;;4950720;28;20043;-74
2022/09/15 09:42:14;;;;;;;7.18;1.25;;;15.10;99.90;;;;;;4933650;28;20577;-73
2022/09/15 09:44:39;;;;;;;5.63;1.23;;;15.10;99.90;;;;;;4934673;28;20078;-72
2022/09/15 09:47:06;;;;;;;3.95;1.00;;;15.00;99.90;;;;;;4950389;28;20051;-73
2022/09/15 09:49:42;;;;;;;8.70;0.93;;;15.00;99.90;;;;;;4950211;28;20062;-72
2022/09/15 09:52:11;;;;;;;3.88;1.05;;;15.00;99.90;;;;;;4950759;28;20042;-72
2022/09/15 09:54:37;;;;;;;3.72;1.00;;;15.00;99.90;;;;;;4955425;28;20046;-72
2022/09/15 09:57:12;;;;;;;5.18;1.10;;;15.00;99.90;;;;;;4971912;28;20038;-73
2022/09/15 09:59:41;;;;;;;5.53;1.10;;;15.00;99.90;;;;;;5000460;28;20137;-73
2022/09/15 10:02:10;;;;;;;5.95;1.27;;;15.00;99.90;;;;;;4991687;28;20145;-73
2022/09/15 10:04:37;;;;;;;7.50;0.90;;;14.90;99.90;;;;;;4975752;28;20042;-69
2022/09/15 10:07:04;;;;;;;3.85;1.10;;;15.10;99.90;;;;;;4993204;28;20045;-71
2022/09/15 10:09:29;;;;;;;5.68;1.10;;;14.90;99.90;;;;;;5010060;28;20048;-75
2022/09/15 10:11:58;;;;;;;6.00;1.15;;;15.00;99.90;;;;;;4992608;28;20050;-72
2022/09/15 10:14:29;;;;;;;7.63;1.30;;;15.10;99.90;;;;;;4989562;28;20496;-71
2022/09/15 10:17:15;;;;;;;3.58;0.80;;;15.20;99.90;;;;;;5007519;28;20497;-72
2022/09/15 10:19:57;;;;;;;5.78;1.23;;;15.20;99.90;;;;;;4991531;28;20077;-71
2022/09/15 10:22:35;;;;;;;4.40;1.20;;;15.30;99.90;;;;;;4992730;28;20053;-72
2022/09/15 10:25:22;;;;;;;5.45;0.90;;;15.40;99.90;;;;;;4988246;28;20165;-71
2022/09/15 10:28:07;;;;;;;3.70;1.02;;;15.50;99.90;;;;;;4991322;28;20132;-74
2022/09/15 10:30:34;;;;;;;5.43;1.00;;;15.70;99.90;;;;;;4986508;28;20053;-72
2022/09/15 10:33:22;;;;;;;3.22;0.73;;;15.80;99.90;;;;;;4989424;28;20053;-71
2022/09/15 10:35:47;;;;;;;4.10;0.70;;;15.70;99.90;;;;;;5006148;28;20513;-73
2022/09/15 10:38:20;;;;;;;3.42;0.80;;;15.70;99.90;;;;;;4980080;28;20148;-72
2022/09/15 10:41:31;;;;;;;5.25;0.90;;;15.70;99.90;;;;;;5014565;28;20073;-69
2022/09/15 10:44:48;;;;;;;3.22;0.73;;;15.70;99.90;;;;;;4925834;29;20060;-72
2022/09/15 10:47:26;;;;;;;5.47;1.00;;;15.70;99.90;;;;;;4851823;29;20057;-71
2022/09/15 10:50:05;;;;;;;4.68;0.80;;;15.70;99.90;;;;;;4835985;29;20273;-72
2022/09/15 10:53:01;;;;;;;4.47;0.93;;;15.70;99.90;;;;;;4848312;29;20069;-73
2022/09/15 10:55:48;;;;;;;2.92;0.85;;;16.00;99.90;;;;;;4832429;29;20073;-73
2022/09/15 10:58:29;;;;;;;4.32;0.75;;;16.20;99.90;;;;;;4849578;29;20472;-70
2022/09/15 11:01:13;;;;;;;2.17;0.68;;;16.40;99.90;;;;;;4833828;29;20411;-73
2022/09/15 11:03:57;;;;;;;4.82;1.00;;;16.80;99.90;;;;;;4821223;29;20080;-72
2022/09/15 11:06:22;;;;;;;3.95;0.85;;;16.90;99.90;;;;;;4832892;29;20102;-73
2022/09/15 11:09:08;;;;;;;3.28;0.90;;;17.00;99.90;;;;;;4836808;29;20098;-73
2022/09/15 11:11:47;;;;;;;2.83;0.70;;;17.10;99.90;;;;;;4836508;29;20140;-72
2022/09/15 11:14:25;;;;;;;3.33;0.68;;;17.20;99.90;;;;;;4849832;29;20587;-73
2022/09/15 11:17:25;;;;;;;2.72;0.68;;;17.30;99.90;;;;;;4851167;29;20068;-72
2022/09/15 11:20:15;;;;;;;4.30;0.90;;;17.20;99.90;;;;;;4859999;29;20150;-71
2022/09/15 11:22:48;;;;;;;5.45;1.58;;;17.10;99.90;;;;;;4919612;29;20208;-72
2022/09/15 11:25:21;;;;;;;3.88;0.80;;;17.00;99.90;;;;;;4997530;28;20457;-74
2022/09/15 11:28:08;;;;;;;3.25;0.95;;;17.10;99.90;;;;;;4981420;28;20146;-74
2022/09/15 11:30:41;;;;;;;5.03;1.15;;;16.90;99.90;;;;;;4996598;28;20046;-74
2022/09/15 11:33:18;;;;;;;6.25;1.15;;;16.90;99.90;;;;;;4999656;28;20054;-72
2022/09/15 11:35:46;;;;;;;3.30;0.98;;;16.80;99.90;;;;;;5018154;28;20490;-75
2022/09/15 11:38:31;;;;;;;6.07;1.33;;;16.80;99.90;;;;;;5000492;28;20148;-73
2022/09/15 11:41:39;;;;;;;3.47;1.00;;;16.60;99.90;;;;;;5016747;28;20054;-72
2022/09/15 11:44:30;;;;;;;4.18;0.90;;;16.60;99.90;;;;;;4920843;29;20062;-70
2022/09/15 11:47:04;;;;;;;3.55;0.82;;;16.60;99.90;;;;;;4944066;29;20055;-74
2022/09/15 11:50:07;;;;;;;4.43;1.30;;;16.70;99.90;;;;;;4956721;29;20060;-75
2022/09/15 11:52:52;;;;;;;3.63;0.88;;;16.80;99.90;;;;;;4939580;29;20067;-76
2022/09/15 11:55:29;;;;;;;2.83;0.68;;;16.90;99.90;;;;;;4957530;29;20442;-74
2022/09/15 11:58:04;;;;;;;3.20;0.60;;;17.10;99.90;;;;;;4958147;29;20051;-73
2022/09/15 12:00:30;;;;;;;5.03;0.75;;;17.20;99.90;;;;;;4929057;29;20487;-71
2022/09/15 12:03:20;;;;;;;3.83;0.90;;;17.20;99.90;;;;;;4932315;29;20167;-71
2022/09/15 12:05:57;;;;;;;4.97;0.88;;;17.30;99.90;;;;;;4949937;29;20051;-71
2022/09/15 12:08:42;;;;;;;2.97;1.05;;;17.40;99.90;;;;;;4949800;29;20159;-70
2022/09/15 12:11:22;;;;;;;4.25;0.90;;;17.60;99.90;;;;;;4933271;29;20055;-71
2022/09/15 12:13:47;;;;;;;7.13;0.93;;;17.80;99.90;;;;;;4936272;29;20055;-70
2022/09/15 12:16:15;;;;;;;6.22;1.00;;;18.00;99.90;;;;;;4947485;29;20062;-71
2022/09/15 12:18:55;;;;;;;3.58;0.80;;;18.20;99.90;;;;;;4931656;29;20138;-71
2022/09/15 12:21:42;;;;;;;3.47;0.82;;;18.30;99.90;;;;;;4987783;28;20085;-71
2022/09/15 12:24:52;;;;;;;2.30;0.70;;;18.30;99.90;;;;;;4994010;28;20068;-71
2022/09/15 12:27:20;;;;;;;2.45;0.90;;;18.30;99.90;;;;;;4895890;29;20076;-70
2022/09/15 12:29:54;;;;;;;2.97;0.68;;;18.30;99.90;;;;;;4915255;29;20062;-71
2022/09/15 12:32:32;;;;;;;9.68;0.90;;;18.40;99.90;;;;;;4914460;28;20146;-71
2022/09/15 12:35:17;;;;;;;6.97;0.82;;;18.30;99.90;;;;;;4914856;29;20139;-71
2022/09/15 12:37:51;;;;;;;4.53;1.17;;;18.20;99.90;;;;;;4896614;29;20055;-70
2022/09/15 12:40:34;;;;;;;2.78;0.80;;;18.30;99.90;;;;;;4898383;29;20059;-71
2022/09/15 12:43:02;;;;;;;3.83;0.80;;;18.20;99.90;;;;;;4914687;29;20059;-71
2022/09/15 12:45:35;;;;;;;3.45;0.93;;;18.10;99.90;;;;;;4914650;29;20156;-69
2022/09/15 12:48:20;;;;;;;;;;;17.80;99.90;;;;;;4914957;29;20189;-71
2022/09/15 12:51:01;;;;;;;2.50;0.82;;;17.70;99.90;;;;;;4913667;29;19967;-71
2022/09/15 12:54:04;;;;;;;5.57;0.93;;;17.70;99.90;;;;;;4914373;29;20440;-71
2022/09/15 12:56:32;;;;;;;4.47;0.68;;;17.80;99.90;;;;;;4838862;29;20117;-71
2022/09/15 12:59:06;;;;;;;4.82;0.68;;;17.90;99.90;;;;;;4905568;29;20603;-70
2022/09/15 13:01:46;;;;;;;1.85;0.63;;;18.00;99.90;;;;;;4933150;29;20055;-70
2022/09/15 13:04:24;;;;;;;2.88;0.93;;;18.20;99.90;;;;;;4913246;29;20056;-70
2022/09/15 13:07:17;;;;;;;5.75;1.13;;;18.40;99.90;;;;;;4914575;29;20147;-71
2022/09/15 13:09:58;;;;;;;3.90;0.90;;;18.40;99.90;;;;;;4871312;29;20116;-71
2022/09/15 13:12:30;;;;;;;6.03;1.00;;;18.20;99.90;;;;;;4866957;29;20093;-72